This is the latest recevied weather packets stored in our database for station/object N8MFN. If no packets are shown the sender has not sent any weather packets the latest 10 day(s).
| Time | Temp. | Humidity | Pressure | Rain* | Wind** | Luminosity | Snow |
|---|---|---|---|---|---|---|---|
| 1777869037 | 11.67° C | 58% | - | 0 mm | - | - | - |
| 1777868416 | 12.22° C | 58% | - | 0 mm | - | - | - |
| 1777863617 | 13.89° C | 56% | - | 0 mm | - | - | - |
| 1777863017 | 13.89° C | 56% | - | 0 mm | - | - | - |
| 1777862437 | 14.44° C | 56% | - | 0 mm | - | - | - |
| 1777853417 | 16.67° C | 53% | - | 0 mm | - | - | - |
| 1777848017 | 18.89° C | 52% | - | 0 mm | - | - | - |
| 1777845017 | 20.56° C | 54% | - | 0 mm | - | - | - |
| 1777842017 | 18.33° C | 54% | - | 0 mm | - | - | - |
| 1777840217 | 19.44° C | 52% | - | 0 mm | - | - | - |
| 1777839617 | 20° C | 52% | - | 0 mm | - | - | - |
| 1777837217 | 23.33° C | 50% | - | 0 mm | - | - | - |
| 1777828817 | 19.44° C | 57% | - | 0 mm | - | - | - |
| 1777822818 | 18.89° C | 61% | - | 0 mm | - | - | - |
| 1777819217 | 17.22° C | 62% | - | 0 mm | - | - | - |
| 1777815017 | 8.33° C | 70% | - | 0 mm | - | - | - |
| 1777813217 | 5.56° C | 70% | - | 0 mm | - | - | - |
| 1777810817 | 3.89° C | 70% | - | 0 mm | - | - | - |
| 1777808417 | 2.22° C | 69% | - | 0 mm | - | - | - |
| 1777801817 | 1.67° C | 68% | - | 0 mm | - | - | - |
| 1777794017 | 2.22° C | 66% | - | 0 mm | - | - | - |
| 1777793417 | 2.22° C | 66% | - | 0 mm | - | - | - |
| 1777792817 | 2.78° C | 66% | - | 0 mm | - | - | - |
| 1777790417 | 2.78° C | 65% | - | 0 mm | - | - | - |
| 1777785017 | 3.33° C | 64% | - | 0 mm | - | - | - |
* Rain latest hour (hover to see other rain measurements)
** Current wind speed in m/s (hover to see current wind gust speed)